Time;durP1;ratioP1;P1;durP2;ratioP2;P2;SDS_P1;SDS_P2;PMS_P1;PMS_P2;Temp;Humidity;BMP_temperature;BMP_pressure;BME280_temperature;BME280_humidity;BME280_pressure;Samples;Min_cycle;Max_cycle;Signal;HPM_P1;HPM_P2
2021/09/29 00:02:14;;;;;;;36.28;5.15;;;18.60;90.10;;;;;;5003007;28;20034;-62
2021/09/29 00:04:39;;;;;;;40.38;5.43;;;18.70;90.20;;;;;;5018615;28;20030;-62
2021/09/29 00:07:05;;;;;;;24.77;5.53;;;18.60;90.20;;;;;;5000825;28;20033;-62
2021/09/29 00:09:30;;;;;;;14.27;4.05;;;18.60;90.10;;;;;;5002373;28;20115;-62
2021/09/29 00:11:56;;;;;;;16.42;4.10;;;18.70;90.20;;;;;;5020161;28;20022;-61
2021/09/29 00:14:21;;;;;;;12.20;3.88;;;18.60;90.20;;;;;;5020101;28;20293;-62
2021/09/29 00:16:47;;;;;;;10.60;3.95;;;18.60;90.20;;;;;;5002593;28;20087;-62
2021/09/29 00:19:13;;;;;;;19.85;4.18;;;18.60;90.20;;;;;;5017889;28;20038;-62
2021/09/29 00:21:38;;;;;;;15.27;3.90;;;18.60;90.30;;;;;;5000043;28;20045;-62
2021/09/29 00:24:04;;;;;;;12.98;3.72;;;18.60;90.30;;;;;;5019339;28;20021;-62
2021/09/29 00:26:29;;;;;;;17.30;3.80;;;18.60;90.40;;;;;;5018032;28;20130;-61
2021/09/29 00:28:55;;;;;;;12.05;3.50;;;18.60;90.40;;;;;;5018440;28;20017;-61
2021/09/29 00:31:27;;;;;;;13.93;3.85;;;18.60;90.40;;;;;;5017910;28;20885;-62
2021/09/29 00:33:59;;;;;;;12.13;4.00;;;18.60;90.50;;;;;;5002087;28;20097;-62
2021/09/29 00:36:26;;;;;;;16.67;3.90;;;18.60;90.50;;;;;;5005145;28;20087;-62
2021/09/29 00:38:51;;;;;;;19.88;3.85;;;18.60;90.50;;;;;;5022445;28;20037;-62
2021/09/29 00:41:17;;;;;;;16.55;3.97;;;18.60;90.60;;;;;;5020377;28;20339;-62
2021/09/29 00:43:42;;;;;;;11.00;3.33;;;18.60;90.60;;;;;;5024091;28;20026;-62
2021/09/29 00:46:08;;;;;;;13.38;4.15;;;18.50;90.60;;;;;;5003961;28;20041;-61
2021/09/29 00:48:33;;;;;;;13.75;4.53;;;18.50;90.60;;;;;;5019963;28;20044;-62
2021/09/29 00:50:59;;;;;;;18.80;4.85;;;18.60;90.60;;;;;;5021973;28;20061;-61
2021/09/29 00:53:25;;;;;;;25.27;4.57;;;18.60;90.70;;;;;;4990397;28;20164;-62
2021/09/29 00:55:51;;;;;;;26.90;4.50;;;18.50;90.70;;;;;;5003765;28;20467;-62
2021/09/29 00:58:16;;;;;;;23.80;4.38;;;18.50;90.60;;;;;;5002859;28;20045;-62
2021/09/29 01:00:42;;;;;;;25.73;4.82;;;18.50;90.70;;;;;;5023641;28;20042;-62
2021/09/29 01:03:07;;;;;;;30.38;4.65;;;18.50;90.70;;;;;;5022430;28;20517;-61
2021/09/29 01:05:34;;;;;;;28.33;4.60;;;18.50;90.70;;;;;;5005483;28;20033;-62
2021/09/29 01:08:02;;;;;;;23.42;4.82;;;18.50;90.80;;;;;;5021126;28;20098;-62
2021/09/29 01:10:41;;;;;;;24.60;4.50;;;18.50;90.80;;;;;;5002980;28;20045;-62
2021/09/29 01:13:10;;;;;;;18.80;4.32;;;18.50;90.80;;;;;;5020344;28;20151;-62
2021/09/29 01:15:44;;;;;;;22.95;5.38;;;18.50;90.90;;;;;;4990499;28;20436;-62
2021/09/29 01:18:10;;;;;;;22.60;5.07;;;18.40;90.90;;;;;;5003609;28;20026;-62
2021/09/29 01:20:41;;;;;;;16.08;4.20;;;18.50;90.90;;;;;;5020529;28;20496;-62
2021/09/29 01:23:31;;;;;;;56.17;6.90;;;18.40;91.00;;;;;;5003718;28;20038;-62
2021/09/29 01:25:56;;;;;;;44.38;6.60;;;18.40;91.10;;;;;;5021078;28;20152;-61
2021/09/29 01:28:34;;;;;;;35.60;5.70;;;18.40;91.20;;;;;;5022052;28;20112;-61
2021/09/29 01:31:00;;;;;;;31.60;4.63;;;18.40;91.20;;;;;;5006886;28;20032;-62
2021/09/29 01:33:27;;;;;;;29.48;5.47;;;18.40;91.20;;;;;;4988913;28;20116;-62
2021/09/29 01:35:53;;;;;;;35.53;6.32;;;18.40;91.20;;;;;;5020703;28;20099;-62
2021/09/29 01:38:18;;;;;;;27.13;6.05;;;18.40;91.20;;;;;;5003306;28;20041;-62
2021/09/29 01:40:44;;;;;;;27.15;5.95;;;18.40;91.30;;;;;;5005178;28;20494;-61
2021/09/29 01:43:10;;;;;;;26.98;5.30;;;18.30;91.40;;;;;;5019635;28;20033;-61
2021/09/29 01:45:36;;;;;;;29.85;5.10;;;18.30;91.30;;;;;;5006362;28;20121;-62
2021/09/29 01:48:01;;;;;;;15.82;5.20;;;18.30;91.40;;;;;;5019751;28;20014;-61
2021/09/29 01:50:28;;;;;;;23.63;5.10;;;18.30;91.40;;;;;;5019656;28;20442;-62
2021/09/29 01:52:53;;;;;;;21.45;4.13;;;18.30;91.40;;;;;;5019989;28;20068;-62
2021/09/29 01:55:19;;;;;;;17.70;3.97;;;18.30;91.40;;;;;;5004010;28;20033;-62
2021/09/29 01:57:46;;;;;;;14.18;4.43;;;18.30;91.50;;;;;;5016778;28;20038;-61
2021/09/29 02:00:12;;;;;;;19.13;4.30;;;18.30;91.50;;;;;;5019485;28;20033;-62
2021/09/29 02:02:41;;;;;;;22.67;4.10;;;18.30;91.60;;;;;;5022406;28;20034;-62
2021/09/29 02:05:07;;;;;;;22.38;4.65;;;18.20;91.60;;;;;;5004557;28;20041;-62
2021/09/29 02:07:32;;;;;;;16.00;4.47;;;18.20;91.70;;;;;;5020051;28;20048;-61
2021/09/29 02:09:58;;;;;;;19.50;4.22;;;18.20;91.60;;;;;;5004598;28;20033;-62
2021/09/29 02:12:23;;;;;;;17.30;3.80;;;18.20;91.60;;;;;;5018073;28;20456;-62
2021/09/29 02:14:49;;;;;;;19.25;4.05;;;18.20;91.60;;;;;;5022155;28;20037;-62
2021/09/29 02:17:17;;;;;;;14.82;3.88;;;18.20;91.60;;;;;;5021085;28;20116;-61
2021/09/29 02:19:43;;;;;;;13.32;4.38;;;18.20;91.60;;;;;;5017409;28;20489;-62
2021/09/29 02:22:08;;;;;;;19.83;4.60;;;18.20;91.60;;;;;;5020618;28;20082;-62
2021/09/29 02:24:34;;;;;;;18.73;4.93;;;18.20;91.60;;;;;;5019592;28;20032;-62
2021/09/29 02:26:59;;;;;;;11.18;5.35;;;18.20;91.60;;;;;;5016006;28;20104;-62
2021/09/29 02:29:25;;;;;;;13.85;4.53;;;18.10;91.60;;;;;;5001791;28;20120;-61
2021/09/29 02:31:50;;;;;;;8.93;4.18;;;18.10;91.60;;;;;;5019526;28;20123;-62
2021/09/29 02:34:16;;;;;;;14.27;4.50;;;18.20;91.60;;;;;;5021541;28;20654;-62
2021/09/29 02:36:41;;;;;;;14.00;4.72;;;18.10;91.50;;;;;;5014696;28;20033;-62
2021/09/29 02:39:07;;;;;;;8.68;4.65;;;18.10;91.50;;;;;;5016683;28;20048;-61
2021/09/29 02:41:33;;;;;;;10.65;4.03;;;18.10;91.60;;;;;;5016770;28;20087;-62
2021/09/29 02:43:58;;;;;;;14.50;4.35;;;18.10;91.60;;;;;;5019730;28;20516;-62
2021/09/29 02:46:25;;;;;;;12.35;4.57;;;18.10;91.60;;;;;;5019852;28;20041;-62
2021/09/29 02:48:50;;;;;;;11.45;4.57;;;18.10;91.60;;;;;;5020988;28;20140;-62
2021/09/29 02:51:16;;;;;;;8.35;4.07;;;18.00;91.60;;;;;;5002976;28;20140;-62
2021/09/29 02:53:42;;;;;;;11.15;4.20;;;18.10;91.60;;;;;;5022325;28;20033;-61
2021/09/29 02:56:07;;;;;;;16.08;4.40;;;18.00;91.60;;;;;;5018881;28;20354;-62
2021/09/29 02:58:33;;;;;;;11.30;3.95;;;18.00;91.60;;;;;;5002267;28;20030;-62
2021/09/29 03:00:59;;;;;;;17.27;4.45;;;18.00;91.60;;;;;;5021281;28;20128;-62
2021/09/29 03:03:25;;;;;;;11.43;4.63;;;18.00;91.60;;;;;;5020704;28;20040;-62
2021/09/29 03:05:50;;;;;;;12.68;5.78;;;18.00;91.50;;;;;;5020174;28;20030;-62
2021/09/29 03:08:16;;;;;;;9.25;4.97;;;18.00;91.50;;;;;;4999941;28;20061;-62
2021/09/29 03:10:42;;;;;;;14.70;5.45;;;18.00;91.50;;;;;;4985374;28;20029;-62
2021/09/29 03:13:08;;;;;;;8.65;4.97;;;18.00;91.50;;;;;;4986703;28;20037;-62
2021/09/29 03:15:34;;;;;;;9.90;4.95;;;18.00;91.50;;;;;;5020646;28;20097;-62
2021/09/29 03:17:59;;;;;;;11.60;4.97;;;18.00;91.60;;;;;;5001471;28;20124;-62
2021/09/29 03:20:25;;;;;;;10.48;4.78;;;18.00;91.50;;;;;;5017879;28;20091;-62
2021/09/29 03:22:52;;;;;;;10.95;4.18;;;18.00;91.50;;;;;;5017764;28;20042;-62
2021/09/29 03:25:17;;;;;;;10.00;4.20;;;18.00;91.50;;;;;;5021461;28;20853;-62
2021/09/29 03:27:43;;;;;;;8.25;4.22;;;18.00;91.60;;;;;;5017954;28;20045;-62
2021/09/29 03:30:10;;;;;;;14.40;4.22;;;18.00;91.60;;;;;;5020728;28;20117;-61
2021/09/29 03:32:35;;;;;;;7.82;4.30;;;18.00;91.60;;;;;;5016960;28;20059;-62
2021/09/29 03:35:01;;;;;;;9.63;3.85;;;18.00;91.60;;;;;;5002413;28;20041;-62
2021/09/29 03:37:26;;;;;;;7.05;4.13;;;18.00;91.60;;;;;;5021877;28;20078;-62
2021/09/29 03:39:52;;;;;;;7.75;3.70;;;18.00;91.60;;;;;;5004106;28;20071;-62
2021/09/29 03:42:17;;;;;;;7.82;3.75;;;18.00;91.60;;;;;;5020731;28;20382;-62
2021/09/29 03:44:43;;;;;;;6.22;3.75;;;17.90;91.70;;;;;;5021789;28;20037;-62
2021/09/29 03:47:08;;;;;;;8.70;3.72;;;17.90;91.70;;;;;;5002961;28;20107;-62
2021/09/29 03:49:34;;;;;;;6.63;3.60;;;17.90;91.60;;;;;;5020588;28;20029;-62
2021/09/29 03:52:00;;;;;;;6.75;3.20;;;17.90;91.70;;;;;;5017941;28;20514;-62
2021/09/29 03:54:25;;;;;;;8.38;3.80;;;17.90;91.70;;;;;;5019250;28;20116;-62
2021/09/29 03:56:51;;;;;;;6.28;3.85;;;17.80;91.70;;;;;;5019694;28;20053;-61
2021/09/29 03:59:16;;;;;;;4.50;2.88;;;17.80;91.70;;;;;;5019276;28;20057;-62
2021/09/29 04:01:43;;;;;;;5.13;3.47;;;17.80;91.80;;;;;;5021567;28;20037;-62
2021/09/29 04:04:09;;;;;;;5.07;3.20;;;17.80;91.80;;;;;;5019172;28;20120;-62
2021/09/29 04:06:34;;;;;;;8.90;3.38;;;17.80;91.80;;;;;;5019492;28;20494;-61
2021/09/29 04:09:00;;;;;;;7.05;3.35;;;17.80;91.80;;;;;;5019309;28;20025;-62
2021/09/29 04:11:26;;;;;;;4.60;3.60;;;17.80;91.90;;;;;;5005073;28;20045;-62
2021/09/29 04:13:51;;;;;;;5.60;3.45;;;17.70;91.90;;;;;;5023884;28;20033;-62
2021/09/29 04:16:17;;;;;;;7.57;3.33;;;17.70;91.90;;;;;;5023925;28;20314;-62
2021/09/29 04:18:42;;;;;;;10.85;3.53;;;17.70;91.90;;;;;;5006824;28;20041;-62
2021/09/29 04:21:09;;;;;;;5.47;3.40;;;17.70;92.00;;;;;;4990294;28;20049;-62
2021/09/29 04:23:35;;;;;;;5.85;3.05;;;17.70;91.90;;;;;;5021837;28;20037;-61
2021/09/29 04:26:02;;;;;;;8.73;3.35;;;17.70;92.00;;;;;;5006991;28;20045;-62
2021/09/29 04:28:28;;;;;;;3.72;2.90;;;17.70;92.00;;;;;;5020749;28;20362;-62
2021/09/29 04:30:53;;;;;;;4.60;3.35;;;17.60;91.90;;;;;;5023469;28;20033;-62
2021/09/29 04:33:19;;;;;;;6.75;3.53;;;17.70;92.00;;;;;;5024493;28;20032;-61
2021/09/29 04:35:44;;;;;;;7.55;3.08;;;17.60;91.90;;;;;;5021726;28;20025;-62
2021/09/29 04:38:10;;;;;;;5.63;3.25;;;17.60;91.90;;;;;;5006242;28;20398;-62
2021/09/29 04:40:35;;;;;;;5.18;3.38;;;17.60;91.90;;;;;;5006098;28;20029;-62
2021/09/29 04:43:01;;;;;;;4.47;2.97;;;17.60;91.90;;;;;;5003782;28;20504;-62
2021/09/29 04:45:26;;;;;;;6.72;2.90;;;17.60;91.90;;;;;;5023328;28;20461;-62
2021/09/29 04:47:52;;;;;;;6.10;2.90;;;17.60;91.90;;;;;;5004531;28;20033;-61
2021/09/29 04:50:18;;;;;;;5.03;3.03;;;17.60;91.90;;;;;;4993588;28;20029;-62
2021/09/29 04:52:44;;;;;;;5.72;2.60;;;17.60;91.90;;;;;;5017292;28;20485;-61
2021/09/29 04:55:10;;;;;;;4.80;3.38;;;17.60;91.90;;;;;;5019638;28;20068;-62
2021/09/29 04:57:36;;;;;;;4.68;2.72;;;17.60;91.90;;;;;;5018051;28;20054;-62
2021/09/29 05:00:03;;;;;;;11.35;2.90;;;17.60;91.90;;;;;;5019140;28;20033;-62
2021/09/29 05:02:29;;;;;;;7.13;3.05;;;17.50;91.90;;;;;;5003956;28;20041;-62
2021/09/29 05:04:54;;;;;;;5.10;2.70;;;17.50;91.90;;;;;;5019529;28;20072;-61
2021/09/29 05:07:20;;;;;;;5.50;2.90;;;17.50;91.90;;;;;;5002647;28;20440;-61
2021/09/29 05:09:46;;;;;;;6.70;2.60;;;17.50;91.90;;;;;;5018636;28;20377;-62
2021/09/29 05:12:41;;;;;;;5.75;3.03;;;17.50;91.90;;;;;;5018897;28;20025;-62
2021/09/29 05:15:07;;;;;;;3.30;2.53;;;17.50;91.90;;;;;;5020240;28;20037;-62
2021/09/29 05:17:32;;;;;;;4.68;2.47;;;17.50;91.90;;;;;;5023738;28;20437;-62
2021/09/29 05:19:58;;;;;;;6.20;2.72;;;17.50;92.00;;;;;;5022604;28;20032;-62
2021/09/29 05:22:23;;;;;;;7.13;2.70;;;17.50;91.90;;;;;;5005466;28;20026;-62
2021/09/29 05:24:49;;;;;;;4.70;2.60;;;17.40;91.90;;;;;;4988947;28;20438;-62
2021/09/29 05:27:14;;;;;;;5.20;2.60;;;17.40;91.90;;;;;;5001035;28;20401;-61
2021/09/29 05:29:42;;;;;;;4.43;2.85;;;17.40;91.90;;;;;;5020258;28;20025;-62
2021/09/29 05:32:07;;;;;;;4.43;2.88;;;17.40;91.90;;;;;;5022789;28;20052;-62
2021/09/29 05:34:33;;;;;;;4.32;2.60;;;17.40;91.90;;;;;;5021329;28;20041;-62
2021/09/29 05:36:59;;;;;;;4.63;2.28;;;17.40;91.90;;;;;;5020309;28;20095;-62
2021/09/29 05:39:24;;;;;;;3.85;2.53;;;17.40;91.80;;;;;;5019980;28;20029;-62
2021/09/29 05:41:50;;;;;;;4.38;2.30;;;17.40;91.80;;;;;;5021845;28;20030;-62
2021/09/29 05:44:15;;;;;;;4.50;2.60;;;17.40;91.80;;;;;;5021784;28;20037;-62
2021/09/29 05:46:41;;;;;;;5.70;2.70;;;17.40;91.80;;;;;;5020289;28;20448;-61
2021/09/29 05:49:06;;;;;;;3.95;2.45;;;17.40;91.80;;;;;;5018773;28;20116;-62
2021/09/29 05:51:32;;;;;;;5.43;2.60;;;17.40;91.70;;;;;;5015077;28;20439;-62
2021/09/29 05:53:57;;;;;;;4.47;2.20;;;17.40;91.70;;;;;;5021090;28;20033;-62
2021/09/29 05:56:23;;;;;;;3.38;2.63;;;17.40;91.70;;;;;;5019544;28;20358;-62
2021/09/29 05:58:49;;;;;;;4.53;2.20;;;17.30;91.60;;;;;;5004145;28;20473;-62
2021/09/29 06:01:14;;;;;;;5.05;2.00;;;17.30;91.60;;;;;;5002483;28;20308;-62
2021/09/29 06:03:40;;;;;;;3.00;1.90;;;17.40;91.40;;;;;;4986988;28;20677;-62
2021/09/29 06:06:05;;;;;;;5.03;2.25;;;17.40;91.40;;;;;;5002404;28;21194;-62
2021/09/29 06:08:31;;;;;;;4.30;2.10;;;17.30;91.30;;;;;;4987257;28;20033;-62
2021/09/29 06:10:57;;;;;;;5.60;1.92;;;17.30;91.30;;;;;;5002424;28;20486;-62
2021/09/29 06:13:23;;;;;;;3.50;2.03;;;17.30;91.20;;;;;;5020694;28;20022;-62
2021/09/29 06:15:50;;;;;;;3.45;1.80;;;17.40;91.10;;;;;;5017461;28;20099;-62
2021/09/29 06:18:16;;;;;;;2.38;1.58;;;17.30;91.00;;;;;;5019226;28;20028;-62
2021/09/29 06:20:49;;;;;;;3.67;1.70;;;17.30;90.90;;;;;;5020565;28;20036;-62
2021/09/29 06:23:15;;;;;;;12.18;2.40;;;17.40;90.90;;;;;;5001739;28;20029;-62
2021/09/29 06:25:40;;;;;;;9.40;2.10;;;17.30;90.80;;;;;;5002286;28;20060;-61
2021/09/29 06:28:06;;;;;;;3.63;1.92;;;17.40;90.70;;;;;;4986067;28;20038;-62
2021/09/29 06:30:32;;;;;;;13.30;2.30;;;17.30;90.60;;;;;;5017717;28;20041;-61
2021/09/29 06:32:57;;;;;;;4.55;2.08;;;17.40;90.80;;;;;;5015465;28;20033;-62
2021/09/29 06:35:23;;;;;;;5.45;1.58;;;17.40;90.60;;;;;;5015090;28;20048;-62
2021/09/29 06:37:48;;;;;;;7.55;2.00;;;17.40;90.60;;;;;;5017127;28;20056;-62
2021/09/29 06:40:18;;;;;;;4.18;1.65;;;17.40;90.40;;;;;;5018336;28;20069;-62
2021/09/29 06:42:44;;;;;;;6.40;2.15;;;17.40;90.30;;;;;;4993216;28;20041;-62
2021/09/29 06:45:10;;;;;;;14.57;1.98;;;17.40;90.20;;;;;;5014736;28;20037;-62
2021/09/29 06:47:38;;;;;;;17.15;2.42;;;17.40;90.20;;;;;;5015033;28;20083;-62
2021/09/29 06:50:05;;;;;;;7.68;1.98;;;17.40;90.20;;;;;;5014757;28;20075;-61
2021/09/29 06:52:30;;;;;;;11.30;2.33;;;17.40;90.00;;;;;;5018538;28;20084;-61
2021/09/29 06:54:56;;;;;;;7.72;2.08;;;17.30;90.00;;;;;;4999360;28;20029;-62
2021/09/29 06:57:21;;;;;;;11.45;1.92;;;17.40;90.00;;;;;;5013344;28;20041;-62
2021/09/29 06:59:47;;;;;;;11.02;2.22;;;17.40;90.00;;;;;;4989708;28;20418;-61
2021/09/29 07:02:12;;;;;;;14.90;2.33;;;17.30;90.10;;;;;;5010819;28;20797;-61
2021/09/29 07:04:38;;;;;;;11.63;2.60;;;17.40;89.90;;;;;;5013535;28;20732;-62
2021/09/29 07:07:04;;;;;;;22.85;2.60;;;17.30;89.20;;;;;;5009091;28;20041;-62
2021/09/29 07:09:29;;;;;;;14.30;2.80;;;17.30;89.30;;;;;;5012759;28;20168;-62
2021/09/29 07:11:55;;;;;;;20.67;2.28;;;17.30;89.10;;;;;;5010497;28;20116;-62
2021/09/29 07:14:20;;;;;;;15.20;2.45;;;17.30;88.90;;;;;;5016274;28;20033;-62
2021/09/29 07:16:47;;;;;;;17.52;2.25;;;17.30;88.90;;;;;;5006990;28;20033;-62
2021/09/29 07:19:13;;;;;;;14.95;2.20;;;17.20;88.60;;;;;;5011492;28;20703;-62
2021/09/29 07:21:38;;;;;;;18.63;2.35;;;17.20;88.70;;;;;;5015499;28;20046;-61
2021/09/29 07:24:04;;;;;;;14.70;2.63;;;17.20;88.30;;;;;;4999541;28;20057;-62
2021/09/29 07:26:30;;;;;;;17.65;2.85;;;17.20;88.50;;;;;;4996577;28;20073;-61
2021/09/29 07:28:55;;;;;;;12.98;2.10;;;17.20;88.40;;;;;;4999707;28;20059;-62
2021/09/29 07:31:21;;;;;;;28.92;2.45;;;17.20;88.50;;;;;;5014447;28;20051;-62
2021/09/29 07:33:46;;;;;;;17.70;2.90;;;17.20;88.30;;;;;;5013142;28;20028;-62
2021/09/29 07:36:12;;;;;;;17.65;2.50;;;17.20;87.90;;;;;;5013771;28;20037;-62
2021/09/29 07:38:37;;;;;;;17.52;3.70;;;17.10;88.30;;;;;;5014631;28;20042;-62
2021/09/29 07:41:03;;;;;;;17.23;2.58;;;17.10;88.40;;;;;;5013825;28;20492;-62
2021/09/29 07:43:29;;;;;;;16.88;2.38;;;17.20;88.50;;;;;;5015599;28;20140;-62
2021/09/29 07:45:54;;;;;;;22.63;3.13;;;17.10;88.40;;;;;;4998732;28;20036;-62
2021/09/29 07:48:20;;;;;;;30.15;2.92;;;17.10;88.40;;;;;;5015974;28;20069;-61
2021/09/29 07:50:45;;;;;;;35.35;5.50;;;17.20;88.50;;;;;;5013152;28;20151;-61
2021/09/29 07:53:13;;;;;;;34.03;4.32;;;17.10;88.60;;;;;;5015507;28;20021;-62
2021/09/29 07:55:39;;;;;;;19.15;2.78;;;17.10;88.40;;;;;;5016316;28;20101;-62
2021/09/29 07:58:04;;;;;;;42.20;5.95;;;17.20;88.60;;;;;;5010556;28;22135;-62
2021/09/29 08:00:30;;;;;;;33.40;4.68;;;17.20;88.40;;;;;;4996509;28;20148;-62
2021/09/29 08:02:56;;;;;;;31.23;4.38;;;17.20;88.30;;;;;;4996518;28;20224;-62
2021/09/29 08:05:22;;;;;;;22.42;3.42;;;17.20;88.30;;;;;;5014701;28;20072;-62
2021/09/29 08:07:48;;;;;;;25.83;3.78;;;17.20;88.50;;;;;;5010376;28;20158;-62
2021/09/29 08:10:14;;;;;;;28.40;3.90;;;17.10;88.50;;;;;;4998791;28;20053;-62
2021/09/29 08:12:39;;;;;;;44.03;4.80;;;17.20;88.70;;;;;;4994317;28;20615;-61
2021/09/29 08:15:11;;;;;;;28.20;3.90;;;17.30;88.50;;;;;;5014598;28;20503;-61
2021/09/29 08:17:38;;;;;;;27.17;3.83;;;17.20;88.50;;;;;;4985178;28;20112;-62
2021/09/29 08:20:04;;;;;;;37.67;6.28;;;17.20;88.60;;;;;;5000004;28;20033;-62
2021/09/29 08:22:29;;;;;;;29.90;4.43;;;17.20;88.50;;;;;;5017851;28;20113;-62
2021/09/29 08:25:02;;;;;;;27.48;3.80;;;17.20;88.50;;;;;;4999383;28;20482;-62
2021/09/29 08:27:33;;;;;;;25.92;3.47;;;17.20;88.20;;;;;;5013306;28;20527;-62
2021/09/29 08:30:14;;;;;;;27.17;3.50;;;17.20;88.50;;;;;;5010217;28;20061;-62
2021/09/29 08:37:38;;;;;;;55.60;5.05;;;17.20;88.60;;;;;;5016297;28;20033;-62
2021/09/29 08:40:26;;;;;;;32.75;4.10;;;17.20;88.70;;;;;;5013546;28;20160;-62
2021/09/29 08:48:05;;;;;;;17.42;3.22;;;17.30;88.60;;;;;;4999091;28;20101;-62
2021/09/29 08:50:58;;;;;;;27.95;3.25;;;17.30;88.60;;;;;;4999518;28;20030;-62
2021/09/29 08:54:08;;;;;;;25.15;3.63;;;17.30;88.50;;;;;;5002524;28;20060;-62
2021/09/29 09:18:31;;;;;;;15.50;2.78;;;17.50;87.60;;;;;;4988534;28;20042;-62
2021/09/29 09:21:06;;;;;;;13.07;2.00;;;17.50;87.30;;;;;;5016944;28;20034;-61
2021/09/29 09:23:40;;;;;;;;;;;17.50;87.50;;;;;;5017487;28;20704;-62
2021/09/29 09:26:18;;;;;;;23.10;2.63;;;17.60;87.20;;;;;;5014716;28;20062;-62
2021/09/29 09:28:44;;;;;;;11.05;2.47;;;17.60;86.90;;;;;;5002455;28;20049;-62
2021/09/29 09:31:20;;;;;;;15.52;2.58;;;17.60;86.70;;;;;;5015388;28;20999;-61
2021/09/29 09:33:53;;;;;;;20.95;3.08;;;17.60;86.80;;;;;;4979708;28;20531;-62
2021/09/29 09:36:39;;;;;;;18.20;2.85;;;17.60;86.70;;;;;;5011293;28;20132;-62
2021/09/29 09:39:11;;;;;;;;;;;17.60;86.70;;;;;;5012164;28;20025;-62
2021/09/29 09:41:37;;;;;;;18.75;3.00;;;17.60;86.50;;;;;;5015786;28;19913;-62
2021/09/29 09:44:04;;;;;;;23.50;3.13;;;17.70;86.60;;;;;;5001768;28;20030;-62
2021/09/29 09:46:29;;;;;;;24.52;3.47;;;17.70;86.20;;;;;;5011924;28;20057;-62
2021/09/29 09:49:05;;;;;;;28.50;3.47;;;17.80;86.10;;;;;;5013703;28;20244;-62
2021/09/29 09:51:33;;;;;;;24.38;3.60;;;17.80;86.10;;;;;;5014141;28;20025;-62
2021/09/29 09:53:58;;;;;;;24.95;3.40;;;17.80;85.90;;;;;;5014874;28;20071;-62
2021/09/29 09:56:27;;;;;;;37.97;3.42;;;17.80;85.50;;;;;;5014625;28;20501;-61
2021/09/29 09:58:54;;;;;;;34.05;3.88;;;17.80;85.40;;;;;;4994093;28;20536;-62
2021/09/29 10:01:22;;;;;;;30.88;3.78;;;17.80;85.20;;;;;;4997242;28;20164;-62
2021/09/29 10:03:48;;;;;;;30.35;3.78;;;17.80;85.20;;;;;;5012640;28;20072;-61
2021/09/29 10:06:14;;;;;;;26.95;3.47;;;17.90;85.10;;;;;;5013978;28;20029;-62
2021/09/29 10:08:43;;;;;;;28.20;3.80;;;17.90;83.70;;;;;;5005748;28;20021;-62
2021/09/29 10:11:16;;;;;;;18.73;3.00;;;17.90;83.70;;;;;;5017311;28;20587;-62
2021/09/29 10:14:18;;;;;;;20.17;2.90;;;17.90;83.50;;;;;;4985845;28;20037;-62
2021/09/29 10:27:57;;;;;;;19.10;2.35;;;18.10;81.60;;;;;;5013842;28;20048;-62
2021/09/29 10:30:24;;;;;;;20.23;2.80;;;18.00;81.70;;;;;;5008143;28;20470;-62
2021/09/29 10:32:51;;;;;;;13.73;2.47;;;18.10;81.40;;;;;;4993685;28;21041;-62
2021/09/29 10:37:58;;;;;;;46.53;4.47;;;18.00;80.90;;;;;;5012576;28;20038;-61
2021/09/29 10:43:28;;;;;;;21.95;3.70;;;18.10;80.70;;;;;;5002690;28;20044;-62
2021/09/29 10:46:09;;;;;;;32.67;3.57;;;18.10;80.00;;;;;;5015577;28;20014;-62
2021/09/29 11:07:57;;;;;;;31.52;4.03;;;18.40;78.10;;;;;;5000699;28;20386;-62
2021/09/29 11:27:28;;;;;;;25.67;4.35;;;18.50;77.70;;;;;;5013163;28;20053;-62
2021/09/29 11:32:35;;;;;;;55.53;7.00;;;18.60;76.80;;;;;;5014765;28;20034;-62
2021/09/29 11:35:14;;;;;;;42.38;4.93;;;18.60;76.90;;;;;;5012877;28;20022;-62
2021/09/29 12:10:24;;;;;;;56.58;6.15;;;19.30;74.00;;;;;;5024694;28;20524;-62
2021/09/29 12:12:52;;;;;;;48.55;4.35;;;19.30;73.40;;;;;;4999995;28;20029;-62
2021/09/29 12:15:17;;;;;;;52.63;4.43;;;19.30;73.50;;;;;;5015698;28;20116;-62
2021/09/29 12:17:44;;;;;;;53.38;5.82;;;19.30;73.20;;;;;;5013139;28;20516;-62
2021/09/29 12:20:19;;;;;;;51.92;5.60;;;19.40;73.60;;;;;;4999361;28;20025;-62
2021/09/29 12:22:55;;;;;;;45.30;5.30;;;19.30;73.70;;;;;;4997923;28;20436;-62
2021/09/29 12:25:35;;;;;;;46.85;5.40;;;19.30;74.20;;;;;;4997685;28;20046;-62
2021/09/29 12:28:15;;;;;;;38.88;4.47;;;19.40;74.60;;;;;;5016202;28;20449;-61
2021/09/29 12:30:44;;;;;;;55.75;5.35;;;19.40;74.90;;;;;;5017352;28;20565;-62
2021/09/29 12:35:46;;;;;;;42.80;5.60;;;19.40;75.00;;;;;;5020347;28;20460;-62
2021/09/29 12:38:12;;;;;;;45.22;6.25;;;19.50;75.20;;;;;;4983699;28;20068;-62
2021/09/29 12:40:42;;;;;;;58.25;6.05;;;19.50;75.80;;;;;;5013726;28;20025;-62
2021/09/29 12:43:13;;;;;;;57.95;6.40;;;19.50;74.90;;;;;;5020093;28;20021;-62
2021/09/29 12:45:40;;;;;;;61.53;7.10;;;19.60;74.60;;;;;;5019340;28;20092;-62
2021/09/29 12:48:08;;;;;;;86.32;8.10;;;19.60;74.10;;;;;;5015836;28;20037;-62
2021/09/29 12:50:41;;;;;;;59.92;6.88;;;19.60;73.70;;;;;;5017655;28;20109;-62
2021/09/29 12:53:20;;;;;;;94.18;9.60;;;19.70;73.40;;;;;;5015701;28;20037;-62
2021/09/29 12:56:02;;;;;;;53.50;6.70;;;19.80;73.60;;;;;;5017240;28;20025;-62
2021/09/29 12:58:28;;;;;;;74.95;8.02;;;19.80;73.00;;;;;;5004776;28;20025;-62
2021/09/29 13:00:54;;;;;;;71.07;7.00;;;19.80;72.60;;;;;;5016895;28;20095;-61
2021/09/29 13:03:20;;;;;;;72.50;6.63;;;19.90;72.70;;;;;;5001684;28;20030;-62
2021/09/29 13:05:47;;;;;;;77.72;7.47;;;19.90;72.30;;;;;;5015315;28;20128;-62
2021/09/29 13:08:12;;;;;;;69.00;7.55;;;19.90;72.20;;;;;;5015782;28;20029;-61
2021/09/29 13:10:38;;;;;;;131.65;13.48;;;19.90;72.10;;;;;;5013360;28;20463;-62
2021/09/29 13:13:03;;;;;;;118.85;13.07;;;20.00;72.50;;;;;;4984898;28;20048;-62
2021/09/29 13:15:29;;;;;;;68.57;9.65;;;20.00;72.80;;;;;;4999381;28;20120;-62
2021/09/29 13:17:56;;;;;;;104.22;9.85;;;20.00;72.70;;;;;;4991709;28;20037;-61
2021/09/29 13:20:25;;;;;;;88.78;8.80;;;20.10;72.80;;;;;;5014668;28;20076;-62
2021/09/29 13:22:56;;;;;;;69.57;9.68;;;20.10;72.70;;;;;;5017916;28;20442;-61
2021/09/29 13:25:50;;;;;;;69.20;7.53;;;20.10;72.90;;;;;;4978650;28;20051;-61
2021/09/29 13:39:08;;;;;;;80.53;7.63;;;20.20;72.30;;;;;;5013111;28;20037;-61
2021/09/29 13:41:34;;;;;;;50.22;5.90;;;20.20;72.20;;;;;;4993298;28;20048;-61
2021/09/29 13:44:00;;;;;;;39.72;5.90;;;20.20;72.10;;;;;;5008737;28;20045;-61
2021/09/29 13:46:25;;;;;;;58.13;7.00;;;20.10;71.80;;;;;;4991530;28;20045;-61
2021/09/29 13:48:51;;;;;;;95.72;10.05;;;20.10;71.70;;;;;;5007220;28;20500;-61
2021/09/29 13:51:17;;;;;;;112.50;11.82;;;20.10;71.80;;;;;;5002037;28;20078;-61
2021/09/29 13:53:43;;;;;;;99.70;10.63;;;20.10;71.70;;;;;;5007160;28;20083;-60
2021/09/29 13:56:11;;;;;;;104.40;10.00;;;20.10;71.80;;;;;;5006571;28;20052;-60
2021/09/29 14:30:41;;;;;;;126.50;12.75;;;20.10;76.30;;;;;;5009966;28;20036;-59
2021/09/29 14:33:25;;;;;;;100.78;10.27;;;20.10;76.30;;;;;;4989372;28;20136;-59
2021/09/29 14:35:51;;;;;;;101.05;12.43;;;20.10;75.90;;;;;;5009210;28;20053;-59
2021/09/29 14:38:16;;;;;;;147.63;13.27;;;20.20;76.10;;;;;;5010911;28;20037;-60
2021/09/29 14:40:42;;;;;;;91.63;10.45;;;20.10;75.90;;;;;;5012533;28;20037;-60
2021/09/29 14:43:07;;;;;;;112.47;11.80;;;20.10;76.20;;;;;;5016683;28;20061;-60
2021/09/29 14:45:35;;;;;;;107.55;10.40;;;20.20;76.40;;;;;;5012509;28;20610;-59
2021/09/29 14:48:00;;;;;;;83.00;9.68;;;20.20;76.60;;;;;;5011950;28;20056;-60
2021/09/29 14:50:29;;;;;;;182.50;15.77;;;20.20;76.60;;;;;;5009775;28;20136;-60
2021/09/29 14:52:57;;;;;;;123.30;11.95;;;20.20;76.90;;;;;;4996040;28;20025;-59
2021/09/29 14:55:29;;;;;;;133.73;14.57;;;20.20;76.90;;;;;;4980372;28;20033;-59
2021/09/29 14:57:56;;;;;;;118.97;13.95;;;20.20;77.10;;;;;;4986994;28;20056;-59
2021/09/29 15:00:22;;;;;;;123.97;14.75;;;20.20;77.20;;;;;;5008609;28;20114;-62
2021/09/29 15:02:47;;;;;;;312.15;27.92;;;20.20;77.40;;;;;;4989263;28;20144;-62
2021/09/29 15:05:13;;;;;;;193.80;18.10;;;20.20;77.60;;;;;;4986698;28;20026;-62
2021/09/29 15:07:39;;;;;;;145.45;15.80;;;20.20;77.70;;;;;;5005481;28;20033;-62
2021/09/29 15:10:05;;;;;;;371.88;37.25;;;20.20;77.90;;;;;;4971093;28;20083;-62
2021/09/29 15:12:33;;;;;;;171.02;15.88;;;20.20;78.20;;;;;;4990882;28;20037;-60
2021/09/29 15:19:59;;;;;;;168.85;15.45;;;20.10;78.70;;;;;;4991014;28;20041;-60
2021/09/29 15:22:40;;;;;;;138.80;13.77;;;20.10;79.00;;;;;;5009278;28;20022;-60
2021/09/29 15:25:22;;;;;;;121.88;12.82;;;20.10;79.10;;;;;;4995919;28;20081;-62
2021/09/29 15:28:08;;;;;;;130.30;12.82;;;20.00;79.00;;;;;;4996159;28;20772;-63
2021/09/29 15:47:00;;;;;;;114.85;11.73;;;19.90;81.40;;;;;;5006215;28;20100;-62
2021/09/29 15:49:43;;;;;;;127.00;12.45;;;19.90;81.40;;;;;;4995332;28;20060;-63